Time;durP1;ratioP1;P1;durP2;ratioP2;P2;SDS_P1;SDS_P2;PMS_P1;PMS_P2;Temp;Humidity;BMP_temperature;BMP_pressure;BME280_temperature;BME280_humidity;BME280_pressure;Samples;Min_cycle;Max_cycle;Signal;HPM_P1;HPM_P2
2023/10/02 00:02:59;;;;;;;12.77;4.63;;;22.10;58.20;;;;;;6004441;29;20460;-76
2023/10/02 00:06:01;;;;;;;14.10;4.38;;;22.10;58.30;;;;;;6002464;29;20042;-76
2023/10/02 00:09:04;;;;;;;16.67;4.78;;;22.10;58.50;;;;;;6003903;29;20046;-77
2023/10/02 00:12:12;;;;;;;14.48;4.53;;;22.00;58.50;;;;;;5987143;29;20070;-77
2023/10/02 00:15:13;;;;;;;17.92;5.22;;;22.00;58.60;;;;;;5988155;29;20040;-77
2023/10/02 00:18:18;;;;;;;13.20;5.05;;;22.00;58.70;;;;;;6004035;29;20117;-78
2023/10/02 00:21:19;;;;;;;11.35;4.20;;;21.90;58.80;;;;;;5988358;29;20053;-78
2023/10/02 00:24:20;;;;;;;16.38;5.38;;;21.90;58.90;;;;;;5987990;29;20038;-77
2023/10/02 00:27:21;;;;;;;15.38;5.07;;;21.90;59.00;;;;;;5987470;29;20056;-77
2023/10/02 00:30:36;;;;;;;14.30;5.00;;;21.80;59.10;;;;;;5987051;29;20122;-76
2023/10/02 00:33:36;;;;;;;18.52;5.20;;;21.80;59.20;;;;;;6003387;29;20038;-77
2023/10/02 00:36:38;;;;;;;17.95;6.22;;;21.80;59.20;;;;;;5987254;29;20033;-76
2023/10/02 00:39:47;;;;;;;16.70;5.10;;;21.80;59.40;;;;;;6004059;29;20038;-77
2023/10/02 00:42:55;;;;;;;13.18;4.65;;;21.80;59.50;;;;;;5987890;29;20132;-77
2023/10/02 00:45:58;;;;;;;12.52;4.03;;;21.70;59.50;;;;;;6004704;29;20037;-78
2023/10/02 00:49:23;;;;;;;12.80;4.80;;;21.70;59.50;;;;;;5987099;29;20030;-79
2023/10/02 00:52:21;;;;;;;14.23;5.28;;;21.70;59.50;;;;;;5987518;29;20042;-79
2023/10/02 00:55:30;;;;;;;10.05;4.10;;;21.70;59.50;;;;;;5987855;29;20048;-78
2023/10/02 00:58:31;;;;;;;12.32;4.53;;;21.60;60.20;;;;;;5987621;29;20042;-77
2023/10/02 01:01:34;;;;;;;12.43;4.57;;;21.60;59.60;;;;;;6003638;29;20356;-77
2023/10/02 01:04:35;;;;;;;19.65;4.90;;;21.50;59.80;;;;;;5986696;29;20056;-76
2023/10/02 01:07:36;;;;;;;15.80;5.10;;;21.50;60.00;;;;;;5986901;29;20076;-77
2023/10/02 01:10:40;;;;;;;15.57;4.90;;;21.40;60.20;;;;;;6002035;29;20046;-75
2023/10/02 01:13:41;;;;;;;13.63;4.68;;;21.40;60.30;;;;;;5971633;29;20049;-77
2023/10/02 01:16:50;;;;;;;27.23;10.90;;;21.40;60.50;;;;;;5986859;29;20509;-76
2023/10/02 01:19:53;;;;;;;13.07;4.38;;;21.40;60.50;;;;;;6003345;29;20413;-77
2023/10/02 01:23:11;;;;;;;15.55;5.28;;;21.30;60.60;;;;;;5986681;29;20786;-77
2023/10/02 01:26:16;;;;;;;12.55;4.80;;;21.20;60.60;;;;;;6003866;29;20352;-77
2023/10/02 01:29:17;;;;;;;12.32;4.93;;;21.20;60.70;;;;;;6018143;29;20045;-77
2023/10/02 01:32:18;;;;;;;15.35;5.30;;;21.20;60.80;;;;;;6018092;29;20034;-79
2023/10/02 01:35:19;;;;;;;18.20;5.88;;;21.20;61.00;;;;;;5987878;29;20042;-78
2023/10/02 01:38:34;;;;;;;14.90;5.35;;;21.10;61.00;;;;;;6018667;29;20507;-76
2023/10/02 01:41:38;;;;;;;14.43;5.25;;;21.10;61.10;;;;;;5994825;29;20030;-79
2023/10/02 01:44:54;;;;;;;15.43;4.90;;;21.00;61.00;;;;;;6005009;29;20071;-79
2023/10/02 01:47:55;;;;;;;16.38;6.18;;;21.00;61.10;;;;;;6025205;29;20027;-75
2023/10/02 01:51:15;;;;;;;18.15;5.60;;;21.00;61.10;;;;;;5968726;29;20034;-77
2023/10/02 01:54:16;;;;;;;15.40;5.25;;;21.00;61.30;;;;;;5984685;29;20030;-76
2023/10/02 01:57:24;;;;;;;15.52;4.85;;;21.00;61.40;;;;;;5967723;29;20407;-79
2023/10/02 02:00:25;;;;;;;18.58;4.85;;;20.90;61.50;;;;;;5967894;29;20081;-76
2023/10/02 02:03:28;;;;;;;14.57;5.32;;;20.90;61.70;;;;;;5968152;29;20468;-78
2023/10/02 02:06:29;;;;;;;17.63;5.40;;;20.90;62.00;;;;;;5967801;29;20054;-80
2023/10/02 02:09:37;;;;;;;14.40;5.13;;;20.80;62.20;;;;;;5967878;29;20125;-78
2023/10/02 02:12:44;;;;;;;17.33;4.83;;;20.80;62.70;;;;;;5994781;29;20030;-77
2023/10/02 02:16:07;;;;;;;15.60;5.30;;;20.70;62.80;;;;;;5990741;29;20756;-76
2023/10/02 02:19:07;;;;;;;14.07;4.82;;;20.70;63.10;;;;;;5990065;29;20495;-77
2023/10/02 02:22:09;;;;;;;11.32;4.50;;;20.60;63.00;;;;;;5990323;29;20049;-78
2023/10/02 02:25:10;;;;;;;15.25;5.22;;;20.60;63.10;;;;;;5989983;29;20033;-76
2023/10/02 02:28:11;;;;;;;14.23;5.20;;;20.60;63.10;;;;;;6006646;29;20056;-77
2023/10/02 02:31:29;;;;;;;11.85;4.88;;;20.60;63.00;;;;;;6006935;29;20038;-78
2023/10/02 02:34:30;;;;;;;13.68;4.97;;;20.60;63.00;;;;;;5990087;29;20040;-76
2023/10/02 02:37:32;;;;;;;12.18;4.75;;;20.60;63.00;;;;;;5989817;29;20803;-77
2023/10/02 02:40:33;;;;;;;18.40;6.38;;;20.50;63.10;;;;;;5989703;29;20534;-78
2023/10/02 02:43:38;;;;;;;16.77;5.25;;;20.50;63.30;;;;;;6006762;29;20125;-78
2023/10/02 02:46:53;;;;;;;18.05;5.65;;;20.40;63.50;;;;;;6006253;29;20053;-75
2023/10/02 02:50:00;;;;;;;16.67;5.10;;;20.40;63.60;;;;;;5989695;29;20493;-75
2023/10/02 02:53:16;;;;;;;17.92;4.85;;;20.40;63.80;;;;;;6006535;29;20037;-79
2023/10/02 02:56:23;;;;;;;17.58;5.88;;;20.30;63.80;;;;;;5988826;29;20048;-75
2023/10/02 02:59:28;;;;;;;21.25;5.45;;;20.30;64.00;;;;;;5989078;29;20491;-76
2023/10/02 03:02:31;;;;;;;12.45;5.00;;;20.20;64.00;;;;;;5989404;29;20088;-77
2023/10/02 03:05:38;;;;;;;13.23;4.93;;;20.20;64.00;;;;;;5989535;29;20136;-76
2023/10/02 03:08:40;;;;;;;18.20;5.50;;;20.20;64.00;;;;;;5989230;29;20044;-76
2023/10/02 03:11:42;;;;;;;10.68;5.00;;;20.20;64.00;;;;;;6005901;29;20030;-77
2023/10/02 03:14:43;;;;;;;19.05;5.63;;;20.20;64.00;;;;;;5974128;29;20436;-77
2023/10/02 03:17:45;;;;;;;14.23;5.78;;;20.10;64.00;;;;;;6019461;29;20061;-76
2023/10/02 03:20:49;;;;;;;16.27;4.63;;;20.10;64.20;;;;;;6005010;29;20753;-77
2023/10/02 03:23:58;;;;;;;14.35;4.97;;;20.10;64.30;;;;;;6004071;29;20097;-76
2023/10/02 03:27:00;;;;;;;17.95;6.15;;;20.10;64.30;;;;;;6005614;29;20045;-76
2023/10/02 03:30:04;;;;;;;14.35;4.95;;;20.00;64.30;;;;;;5973752;29;20045;-75
2023/10/02 03:33:19;;;;;;;15.35;5.18;;;20.00;64.50;;;;;;6006711;29;20030;-76
2023/10/02 03:36:20;;;;;;;18.17;5.10;;;19.90;64.50;;;;;;5999443;29;20049;-78
2023/10/02 03:42:42;;;;;;;11.98;4.63;;;19.90;64.90;;;;;;5992018;29;20026;-76
2023/10/02 03:45:44;;;;;;;13.27;5.13;;;19.90;64.80;;;;;;6004526;29;20038;-77
2023/10/02 03:48:51;;;;;;;15.32;5.15;;;19.90;64.80;;;;;;5979451;29;20107;-76
2023/10/02 03:51:52;;;;;;;19.63;5.28;;;19.90;64.70;;;;;;5966307;29;20042;-76
2023/10/02 03:54:55;;;;;;;19.80;5.32;;;19.90;64.80;;;;;;5982853;29;20706;-78
2023/10/02 03:57:59;;;;;;;17.83;5.55;;;19.80;64.80;;;;;;5966006;29;20034;-76
2023/10/02 04:01:00;;;;;;;13.82;4.97;;;20.00;64.90;;;;;;5965795;29;20046;-76
2023/10/02 04:04:19;;;;;;;11.43;5.03;;;19.80;64.70;;;;;;5983214;29;20457;-75
2023/10/02 04:07:20;;;;;;;19.38;5.65;;;19.90;64.70;;;;;;5966493;29;20403;-77
2023/10/02 04:10:24;;;;;;;12.63;4.45;;;19.90;64.60;;;;;;5983866;29;20137;-76
2023/10/02 04:13:32;;;;;;;12.93;5.40;;;19.80;64.50;;;;;;5988624;29;20072;-78
2023/10/02 04:16:33;;;;;;;13.27;4.50;;;19.80;64.50;;;;;;5988971;29;20459;-78
2023/10/02 04:19:34;;;;;;;13.88;5.07;;;19.80;64.50;;;;;;5988113;29;20104;-77
2023/10/02 04:22:36;;;;;;;15.45;5.15;;;19.90;64.50;;;;;;6004508;29;20516;-77
2023/10/02 04:25:39;;;;;;;16.25;5.32;;;19.90;64.60;;;;;;5987865;29;20041;-76
2023/10/02 04:28:49;;;;;;;12.45;4.75;;;19.90;64.50;;;;;;5987657;29;20399;-77
2023/10/02 04:35:43;;;;;;;13.88;5.00;;;19.80;64.50;;;;;;5988285;29;20567;-77
2023/10/02 04:38:49;;;;;;;16.23;5.72;;;19.80;64.60;;;;;;6004442;29;20042;-77
2023/10/02 04:42:09;;;;;;;15.40;5.22;;;19.80;64.90;;;;;;6019196;29;20147;-76
2023/10/02 04:45:20;;;;;;;15.93;5.57;;;19.70;65.00;;;;;;6018571;29;20046;-75
2023/10/02 04:48:27;;;;;;;16.08;5.72;;;19.70;65.10;;;;;;5987838;29;20499;-76
2023/10/02 04:51:30;;;;;;;20.08;5.50;;;19.70;65.20;;;;;;6018494;29;20098;-76
2023/10/02 04:54:31;;;;;;;23.58;6.05;;;19.60;65.20;;;;;;5987395;29;20045;-76
2023/10/02 04:57:34;;;;;;;17.92;5.93;;;19.60;65.20;;;;;;5987823;29;20531;-76
2023/10/02 05:04:03;;;;;;;14.25;5.85;;;19.50;65.20;;;;;;6004467;29;20041;-77
2023/10/02 05:07:04;;;;;;;13.65;4.95;;;19.40;65.30;;;;;;6004301;29;20052;-78
2023/10/02 05:10:07;;;;;;;14.35;5.25;;;19.50;65.40;;;;;;6003767;29;20046;-75
2023/10/02 05:13:09;;;;;;;17.20;5.20;;;19.50;65.40;;;;;;5987798;29;20034;-77
2023/10/02 05:16:12;;;;;;;17.60;5.75;;;19.50;65.40;;;;;;5988145;29;20165;-76
2023/10/02 05:19:15;;;;;;;17.15;5.57;;;19.40;65.40;;;;;;5988179;29;20075;-76
2023/10/02 05:22:16;;;;;;;15.98;6.07;;;19.40;65.50;;;;;;6008910;29;20115;-77
2023/10/02 05:25:18;;;;;;;14.98;5.13;;;19.40;65.60;;;;;;5991300;29;20087;-78
2023/10/02 05:28:19;;;;;;;17.75;5.38;;;19.40;65.60;;;;;;6007961;29;20474;-76
2023/10/02 05:31:21;;;;;;;23.50;6.20;;;19.40;65.70;;;;;;6008651;29;20042;-76
2023/10/02 05:34:21;;;;;;;15.00;4.88;;;19.40;65.70;;;;;;6008608;29;20413;-76
2023/10/02 05:37:23;;;;;;;16.50;5.03;;;19.40;65.90;;;;;;6008983;29;20026;-76
2023/10/02 05:43:24;;;;;;;14.60;5.43;;;19.40;65.80;;;;;;6009636;29;20038;-76
2023/10/02 05:46:52;;;;;;;12.82;5.28;;;19.40;65.80;;;;;;6007135;29;20038;-76
2023/10/02 05:49:49;;;;;;;17.17;5.60;;;19.50;65.60;;;;;;6009013;29;20060;-76
2023/10/02 05:52:53;;;;;;;20.70;6.70;;;19.50;65.30;;;;;;5992460;29;20122;-76
2023/10/02 05:55:57;;;;;;;18.92;6.03;;;19.50;65.20;;;;;;5991881;29;20038;-76
2023/10/02 05:58:59;;;;;;;17.38;5.57;;;19.50;65.10;;;;;;5991490;29;20038;-76
2023/10/02 06:02:00;;;;;;;18.08;5.38;;;19.50;65.10;;;;;;5991497;29;20061;-76
2023/10/02 06:05:07;;;;;;;24.10;5.75;;;19.50;65.10;;;;;;6008929;29;20038;-76
2023/10/02 06:08:10;;;;;;;21.40;6.10;;;19.50;65.00;;;;;;5990681;29;20133;-78
2023/10/02 06:11:25;;;;;;;16.70;5.40;;;19.50;65.00;;;;;;5991235;29;20041;-77
2023/10/02 06:14:26;;;;;;;12.80;4.80;;;19.50;64.90;;;;;;5977842;29;20482;-77
2023/10/02 06:17:32;;;;;;;16.65;5.35;;;19.50;64.80;;;;;;5991808;29;20033;-76
2023/10/02 06:20:32;;;;;;;16.45;5.65;;;19.50;64.80;;;;;;5990292;29;20139;-76
2023/10/02 06:23:39;;;;;;;16.50;5.75;;;19.60;64.90;;;;;;5992117;29;20034;-77
2023/10/02 06:26:49;;;;;;;15.48;5.53;;;19.60;64.70;;;;;;6008203;29;20156;-77
2023/10/02 06:29:52;;;;;;;21.67;5.00;;;19.60;64.60;;;;;;6008388;29;20085;-77
2023/10/02 06:32:53;;;;;;;19.85;6.70;;;19.70;64.60;;;;;;6009022;29;20117;-77
2023/10/02 06:35:57;;;;;;;16.52;5.20;;;19.70;64.50;;;;;;5992308;29;20385;-76
2023/10/02 06:38:58;;;;;;;18.83;6.32;;;19.80;64.30;;;;;;5992055;29;20118;-77
2023/10/02 06:42:04;;;;;;;16.77;5.70;;;19.80;64.00;;;;;;6009735;29;20065;-76
2023/10/02 06:45:11;;;;;;;14.20;4.75;;;19.90;63.80;;;;;;5992014;29;20292;-77
2023/10/02 06:48:20;;;;;;;22.47;5.83;;;19.90;63.60;;;;;;5977080;29;20415;-77
2023/10/02 06:51:21;;;;;;;15.50;5.55;;;20.00;63.40;;;;;;5994580;29;20075;-77
2023/10/02 06:54:22;;;;;;;16.52;5.70;;;20.00;63.20;;;;;;5997631;29;20432;-76
2023/10/02 06:57:26;;;;;;;18.90;5.47;;;20.00;63.10;;;;;;6030295;29;20044;-78
2023/10/02 07:00:54;;;;;;;19.90;6.22;;;20.10;63.10;;;;;;5998497;29;20038;-77
2023/10/02 07:03:51;;;;;;;10.70;4.20;;;20.10;63.00;;;;;;6000643;29;20041;-77
2023/10/02 07:06:52;;;;;;;16.25;6.50;;;20.20;62.90;;;;;;6008741;29;20459;-76
2023/10/02 07:10:07;;;;;;;15.70;5.68;;;20.20;62.80;;;;;;6007340;29;20030;-76
2023/10/02 07:13:20;;;;;;;33.47;5.38;;;20.30;62.50;;;;;;5992273;29;20387;-76
2023/10/02 07:16:22;;;;;;;19.17;5.97;;;20.30;62.30;;;;;;6007998;29;20074;-76
2023/10/02 07:19:38;;;;;;;13.70;4.65;;;20.40;62.00;;;;;;5990555;29;20056;-76
2023/10/02 07:22:40;;;;;;;16.73;5.70;;;20.40;61.80;;;;;;5991047;29;20081;-77
2023/10/02 07:25:50;;;;;;;16.45;5.25;;;20.50;61.40;;;;;;6008233;29;20109;-78
2023/10/02 07:28:51;;;;;;;18.58;5.35;;;20.60;61.20;;;;;;5991479;29;20082;-76
2023/10/02 07:31:52;;;;;;;20.73;5.63;;;20.60;60.80;;;;;;5991322;29;20437;-78
2023/10/02 07:34:54;;;;;;;21.42;6.47;;;20.70;60.40;;;;;;5991371;29;20069;-77
2023/10/02 07:38:01;;;;;;;18.08;6.90;;;20.80;59.90;;;;;;5990648;29;20045;-78
2023/10/02 07:41:07;;;;;;;18.33;5.90;;;20.90;59.80;;;;;;5990698;29;20037;-76
2023/10/02 07:44:08;;;;;;;15.20;4.97;;;20.90;59.40;;;;;;5990524;29;20091;-77
2023/10/02 07:47:10;;;;;;;15.50;5.50;;;21.10;59.10;;;;;;5990101;29;20038;-76
2023/10/02 07:50:23;;;;;;;19.63;4.88;;;21.20;58.60;;;;;;5979133;29;20038;-77
2023/10/02 07:53:38;;;;;;;15.27;5.50;;;21.20;58.20;;;;;;5976757;29;20021;-78
2023/10/02 07:56:41;;;;;;;17.48;5.43;;;21.30;58.00;;;;;;6029648;29;20514;-77
2023/10/02 07:59:43;;;;;;;20.20;5.57;;;21.50;57.70;;;;;;6009429;29;20099;-78
2023/10/02 08:02:44;;;;;;;23.60;5.60;;;21.50;57.30;;;;;;5975381;29;20038;-77
2023/10/02 08:05:46;;;;;;;16.38;5.38;;;21.60;57.30;;;;;;5973490;29;20041;-77
2023/10/02 08:12:29;;;;;;;25.48;6.13;;;21.90;56.90;;;;;;6005526;29;20460;-77
2023/10/02 08:15:32;;;;;;;15.32;5.53;;;22.00;56.60;;;;;;6005693;29;20034;-78
2023/10/02 08:18:55;;;;;;;18.08;5.32;;;22.10;56.30;;;;;;5988356;29;20547;-76
2023/10/02 08:21:55;;;;;;;23.92;5.03;;;22.20;56.40;;;;;;5988514;29;20033;-76
2023/10/02 08:24:56;;;;;;;15.80;5.60;;;22.40;56.20;;;;;;5987889;29;20113;-76
2023/10/02 08:27:57;;;;;;;18.10;5.05;;;22.50;56.00;;;;;;5988097;29;20621;-79
2023/10/02 08:31:02;;;;;;;17.63;5.97;;;22.70;55.80;;;;;;6004329;29;20034;-76
2023/10/02 08:34:06;;;;;;;15.82;6.07;;;22.80;55.40;;;;;;6004503;29;20030;-76
2023/10/02 08:37:12;;;;;;;28.20;7.53;;;22.90;54.90;;;;;;6004368;29;20044;-76
2023/10/02 08:40:15;;;;;;;28.27;7.78;;;23.00;54.50;;;;;;5987279;29;20057;-75
2023/10/02 08:43:18;;;;;;;18.48;6.47;;;23.10;54.50;;;;;;5972742;29;20038;-76
2023/10/02 08:46:21;;;;;;;18.50;6.60;;;23.20;54.40;;;;;;5987759;29;20034;-77
2023/10/02 08:49:25;;;;;;;17.35;5.38;;;23.20;54.10;;;;;;5987782;29;20089;-78
2023/10/02 08:52:38;;;;;;;19.35;5.68;;;23.30;54.10;;;;;;6018219;29;20351;-78
2023/10/02 08:58:46;;;;;;;21.70;6.18;;;23.50;53.70;;;;;;6009001;29;20057;-75
2023/10/02 09:01:47;;;;;;;20.65;7.50;;;23.50;53.60;;;;;;5991860;29;20061;-77
2023/10/02 09:04:55;;;;;;;17.77;5.65;;;23.70;53.60;;;;;;6022342;29;20429;-77
2023/10/02 09:08:06;;;;;;;12.85;5.00;;;23.70;54.00;;;;;;5992147;29;20063;-77
2023/10/02 09:11:07;;;;;;;18.88;6.07;;;23.90;53.20;;;;;;6008397;29;20030;-77
2023/10/02 09:17:44;;;;;;;26.63;5.50;;;24.10;52.80;;;;;;5991704;29;20384;-78
2023/10/02 09:21:04;;;;;;;13.80;4.60;;;24.20;52.80;;;;;;5991071;29;20030;-76
2023/10/02 09:24:18;;;;;;;16.27;5.75;;;24.30;52.20;;;;;;5991421;29;20044;-76
2023/10/02 09:27:30;;;;;;;15.63;4.80;;;24.40;52.10;;;;;;6008040;29;20337;-77
2023/10/02 09:33:37;;;;;;;18.08;5.30;;;24.50;51.50;;;;;;6008514;29;20034;-77
2023/10/02 09:36:48;;;;;;;19.80;5.47;;;24.50;51.50;;;;;;6007881;29;20347;-77
2023/10/02 09:39:49;;;;;;;12.40;5.38;;;24.60;51.70;;;;;;6007529;29;20045;-78
2023/10/02 09:43:00;;;;;;;24.02;6.50;;;24.70;51.60;;;;;;5990575;29;20046;-75
2023/10/02 09:46:06;;;;;;;16.23;5.03;;;24.80;51.50;;;;;;5975004;29;20038;-76
2023/10/02 09:49:21;;;;;;;11.70;5.30;;;24.90;51.60;;;;;;6007462;29;20066;-76
2023/10/02 09:52:33;;;;;;;26.88;6.75;;;24.90;50.80;;;;;;5991400;29;20045;-78
2023/10/02 09:56:06;;;;;;;19.90;7.45;;;25.00;50.70;;;;;;6008298;29;20042;-76
2023/10/02 09:59:16;;;;;;;13.32;4.85;;;25.10;50.50;;;;;;6017989;29;20022;-74
2023/10/02 10:05:45;;;;;;;;;;;25.30;50.50;;;;;;6007017;29;20050;-77
2023/10/02 10:12:50;;;;;;;13.55;4.20;;;25.50;49.40;;;;;;5914108;30;20060;-78
2023/10/02 10:15:43;;;;;;;16.10;4.95;;;25.60;49.50;;;;;;5914378;30;20044;-75
2023/10/02 10:22:40;;;;;;;13.40;4.97;;;25.90;49.60;;;;;;5914201;30;20420;-78
2023/10/02 10:25:42;;;;;;;18.08;5.45;;;26.20;49.20;;;;;;5899330;30;20047;-77
2023/10/02 10:28:53;;;;;;;15.85;4.72;;;26.60;48.40;;;;;;5928189;30;20476;-77
2023/10/02 10:31:55;;;;;;;13.80;4.85;;;26.70;47.80;;;;;;5928356;30;20114;-76
2023/10/02 10:35:12;;;;;;;16.73;5.03;;;27.20;47.30;;;;;;5913428;30;20270;-76
2023/10/02 10:38:36;;;;;;;17.30;5.03;;;27.50;46.90;;;;;;5908318;30;20406;-78
2023/10/02 10:41:40;;;;;;;13.75;4.68;;;27.80;46.10;;;;;;5891986;30;20060;-77
2023/10/02 10:44:52;;;;;;;16.45;5.03;;;28.10;45.80;;;;;;5898245;30;20050;-78
2023/10/02 10:47:53;;;;;;;20.58;5.57;;;28.40;45.20;;;;;;5906842;29;20097;-77
2023/10/02 10:51:02;;;;;;;11.52;4.50;;;28.60;44.80;;;;;;5989282;29;20038;-77
2023/10/02 10:54:18;;;;;;;12.43;4.45;;;28.90;44.40;;;;;;5989672;29;20061;-76
2023/10/02 10:57:21;;;;;;;10.40;4.20;;;29.10;43.80;;;;;;6019712;29;20491;-76
2023/10/02 11:00:26;;;;;;;11.48;4.63;;;29.30;43.50;;;;;;5997179;29;20375;-77
2023/10/02 11:03:30;;;;;;;12.55;5.32;;;29.40;43.00;;;;;;6011514;29;20048;-77
2023/10/02 11:06:31;;;;;;;16.35;4.50;;;29.50;42.90;;;;;;6026570;29;20049;-77
2023/10/02 11:09:32;;;;;;;13.52;5.15;;;29.80;42.00;;;;;;6026531;29;20132;-77
2023/10/02 11:12:38;;;;;;;8.45;4.10;;;30.10;41.50;;;;;;5993277;29;20042;-77
2023/10/02 11:15:50;;;;;;;13.98;4.80;;;30.40;41.00;;;;;;6005103;29;20057;-77
2023/10/02 11:19:13;;;;;;;11.02;4.63;;;30.80;40.60;;;;;;5987661;29;20443;-78
2023/10/02 11:22:19;;;;;;;15.57;4.88;;;31.20;39.90;;;;;;5988650;29;20212;-76
2023/10/02 11:25:21;;;;;;;11.98;5.10;;;31.70;39.30;;;;;;5989043;29;20605;-76
2023/10/02 11:28:29;;;;;;;11.68;5.00;;;32.20;38.40;;;;;;5988102;29;20109;-77
2023/10/02 11:31:30;;;;;;;14.70;4.75;;;32.60;37.50;;;;;;6004416;29;20136;-77
2023/10/02 11:34:41;;;;;;;16.08;4.80;;;33.00;36.70;;;;;;6004941;29;20041;-78
2023/10/02 11:37:49;;;;;;;12.35;5.20;;;33.20;35.90;;;;;;5988733;29;20037;-77
2023/10/02 11:40:52;;;;;;;15.70;5.40;;;33.80;35.30;;;;;;5988565;29;20507;-77
2023/10/02 11:43:57;;;;;;;11.95;5.38;;;34.00;34.60;;;;;;5988490;29;20113;-76
2023/10/02 11:46:59;;;;;;;10.93;5.30;;;34.40;33.90;;;;;;6005562;29;20038;-78
2023/10/02 11:50:00;;;;;;;12.38;4.82;;;34.70;33.10;;;;;;6015349;29;20038;-78
2023/10/02 11:53:01;;;;;;;9.23;4.10;;;35.10;32.50;;;;;;5998793;29;20113;-77
2023/10/02 11:56:02;;;;;;;11.35;4.43;;;35.50;31.80;;;;;;5972813;29;20048;-76
2023/10/02 11:59:03;;;;;;;13.77;4.57;;;35.90;30.80;;;;;;6004256;29;20402;-76
2023/10/02 12:02:04;;;;;;;15.75;4.95;;;36.20;30.20;;;;;;6008518;29;20129;-77
2023/10/02 12:05:07;;;;;;;10.55;4.18;;;36.40;29.70;;;;;;6010146;29;20041;-77
2023/10/02 12:08:08;;;;;;;9.98;4.35;;;36.60;29.50;;;;;;6010040;29;20495;-79
2023/10/02 12:11:12;;;;;;;11.57;4.53;;;36.80;29.10;;;;;;6017513;29;20034;-77
2023/10/02 12:14:12;;;;;;;15.45;3.95;;;36.90;28.80;;;;;;5987759;29;20174;-77
2023/10/02 12:17:14;;;;;;;14.35;4.38;;;37.20;28.60;;;;;;5987969;29;20033;-76
2023/10/02 12:20:22;;;;;;;8.75;4.03;;;37.60;29.00;;;;;;6001950;24;20444;-76
2023/10/02 12:23:28;;;;;;;11.50;4.00;;;38.00;28.40;;;;;;5965411;29;20050;-76
2023/10/02 12:26:29;;;;;;;9.95;4.72;;;38.30;27.70;;;;;;5965881;29;20042;-76
2023/10/02 12:29:50;;;;;;;;;;;;;;;;;;;;;
2023/10/02 12:33:36;;;;;;;9.20;4.60;;;38.90;27.10;;;;;;5933049;29;20055;-77
2023/10/02 12:38:24;;;;;;;8.80;4.45;;;39.10;26.90;;;;;;5918268;30;20319;-79
2023/10/02 12:41:20;;;;;;;8.85;3.92;;;39.30;26.60;;;;;;5866115;30;20045;-78
2023/10/02 12:44:23;;;;;;;12.93;4.05;;;39.40;26.50;;;;;;5852032;30;20052;-79
2023/10/02 12:47:24;;;;;;;11.23;4.20;;;39.40;26.40;;;;;;5852287;30;20051;-77
2023/10/02 12:50:27;;;;;;;12.25;4.30;;;39.30;26.40;;;;;;5852626;30;20044;-79
2023/10/02 12:53:29;;;;;;;12.35;4.97;;;38.70;26.70;;;;;;5852345;30;20049;-76
2023/10/02 12:56:30;;;;;;;17.90;4.25;;;37.60;27.60;;;;;;5867574;30;20041;-77
2023/10/02 12:59:31;;;;;;;7.50;3.65;;;36.60;28.60;;;;;;5853207;30;20059;-79
2023/10/02 13:02:32;;;;;;;8.15;4.13;;;35.80;29.40;;;;;;5871231;30;20153;-76
2023/10/02 13:05:33;;;;;;;11.93;4.38;;;35.00;30.00;;;;;;5873589;30;20048;-76
2023/10/02 13:08:33;;;;;;;9.30;4.57;;;34.30;30.90;;;;;;5873868;30;20109;-77
2023/10/02 13:11:39;;;;;;;11.82;4.00;;;33.70;31.70;;;;;;5883956;30;20131;-76
2023/10/02 13:14:40;;;;;;;8.68;3.65;;;33.20;32.40;;;;;;5895484;30;20031;-75
2023/10/02 13:17:42;;;;;;;10.30;3.83;;;32.80;32.90;;;;;;5965361;29;20430;-78
2023/10/02 13:20:47;;;;;;;6.43;3.42;;;32.30;33.40;;;;;;5986596;29;20487;-78
2023/10/02 13:23:51;;;;;;;9.35;3.80;;;32.10;33.80;;;;;;5987318;29;20042;-78
2023/10/02 13:26:52;;;;;;;6.65;3.58;;;31.80;34.10;;;;;;5998139;29;20042;-77
2023/10/02 13:29:56;;;;;;;9.98;4.07;;;31.60;34.50;;;;;;5981433;29;20030;-77
2023/10/02 13:32:57;;;;;;;9.98;3.40;;;31.40;34.90;;;;;;5964316;29;20528;-78
2023/10/02 13:36:03;;;;;;;15.80;3.20;;;31.20;35.30;;;;;;5964472;29;20476;-77
2023/10/02 13:39:04;;;;;;;7.95;3.67;;;31.10;35.60;;;;;;5964194;29;20524;-77
2023/10/02 13:42:05;;;;;;;6.90;3.55;;;30.90;35.90;;;;;;5984014;29;20038;-77
2023/10/02 13:45:07;;;;;;;6.30;3.65;;;30.80;36.20;;;;;;5968315;29;20366;-78
2023/10/02 13:48:09;;;;;;;8.90;3.28;;;30.70;36.30;;;;;;5984847;29;20487;-79
2023/10/02 13:51:11;;;;;;;9.55;3.78;;;30.60;36.50;;;;;;5968466;29;20050;-77
2023/10/02 13:54:12;;;;;;;15.75;3.90;;;30.50;36.60;;;;;;5968370;29;20041;-76
2023/10/02 13:57:15;;;;;;;7.75;3.80;;;30.50;36.80;;;;;;5968573;29;20114;-76
2023/10/02 14:00:22;;;;;;;17.98;4.63;;;30.50;37.20;;;;;;5968300;29;20446;-78
2023/10/02 14:03:23;;;;;;;7.73;3.90;;;30.40;37.30;;;;;;5985069;29;20038;-78
2023/10/02 14:06:28;;;;;;;8.57;3.90;;;30.30;37.50;;;;;;5968471;29;20356;-78
2023/10/02 14:09:33;;;;;;;13.88;3.78;;;30.30;37.60;;;;;;5970040;29;20067;-76
2023/10/02 14:12:34;;;;;;;11.02;3.70;;;30.20;37.70;;;;;;5977798;29;20401;-76
2023/10/02 14:15:36;;;;;;;7.10;3.22;;;30.20;37.80;;;;;;6007229;29;20033;-76
2023/10/02 14:18:39;;;;;;;6.57;3.72;;;30.10;37.80;;;;;;5990567;29;20054;-78
2023/10/02 14:21:40;;;;;;;5.63;3.65;;;30.10;38.00;;;;;;6005104;29;20133;-76
2023/10/02 14:24:41;;;;;;;6.38;3.58;;;30.10;38.00;;;;;;6005455;29;20030;-77
2023/10/02 14:27:45;;;;;;;11.98;4.30;;;30.10;38.10;;;;;;6005753;29;20034;-77
2023/10/02 14:30:46;;;;;;;18.50;4.32;;;30.00;38.20;;;;;;5990063;29;20059;-78
2023/10/02 14:33:48;;;;;;;6.10;3.70;;;30.00;38.30;;;;;;6006049;29;20029;-77
2023/10/02 14:36:50;;;;;;;6.57;3.55;;;30.00;38.40;;;;;;5991295;29;20044;-77
2023/10/02 14:39:54;;;;;;;6.95;4.03;;;30.00;38.30;;;;;;6008425;29;20098;-76
2023/10/02 14:43:00;;;;;;;7.78;3.58;;;30.00;38.30;;;;;;6017245;29;20037;-78
2023/10/02 14:46:02;;;;;;;7.45;3.60;;;29.90;38.20;;;;;;5995208;29;20105;-78
2023/10/02 14:49:03;;;;;;;8.45;3.08;;;29.90;38.30;;;;;;6006459;29;20037;-78
2023/10/02 14:52:04;;;;;;;7.28;3.65;;;30.00;38.20;;;;;;5988359;29;20034;-78
2023/10/02 14:55:05;;;;;;;7.45;3.83;;;30.00;38.20;;;;;;5989552;29;20057;-78
2023/10/02 14:58:06;;;;;;;11.45;4.30;;;29.90;38.20;;;;;;5988975;29;20034;-78
2023/10/02 15:01:11;;;;;;;6.03;3.60;;;29.90;38.20;;;;;;5975740;29;20111;-76
2023/10/02 15:04:13;;;;;;;10.43;3.80;;;29.90;38.30;;;;;;5983778;29;20113;-78
2023/10/02 15:07:14;;;;;;;6.88;3.95;;;29.90;38.20;;;;;;5967662;29;20072;-78
2023/10/02 15:10:23;;;;;;;8.80;3.85;;;29.90;38.20;;;;;;5974539;29;20067;-77
2023/10/02 15:13:25;;;;;;;5.70;3.47;;;29.90;38.20;;;;;;5965043;29;20038;-78
2023/10/02 15:16:26;;;;;;;8.63;3.72;;;29.80;38.10;;;;;;5971268;29;20049;-77
2023/10/02 15:19:27;;;;;;;6.68;3.92;;;29.80;38.20;;;;;;5968633;29;20432;-77
2023/10/02 15:22:32;;;;;;;5.53;3.40;;;29.80;38.20;;;;;;5992908;29;20118;-76
2023/10/02 15:25:34;;;;;;;8.75;3.70;;;29.80;38.20;;;;;;5968833;29;20076;-76
2023/10/02 15:28:35;;;;;;;14.18;4.10;;;29.80;38.20;;;;;;5983209;29;20110;-79
2023/10/02 15:31:36;;;;;;;7.32;3.75;;;29.80;38.20;;;;;;5966981;29;20038;-77
2023/10/02 15:34:36;;;;;;;10.75;4.03;;;29.70;38.20;;;;;;5966024;29;20139;-77
2023/10/02 15:37:41;;;;;;;11.32;3.85;;;29.70;38.30;;;;;;5982081;29;20129;-78
2023/10/02 15:40:46;;;;;;;6.25;3.85;;;29.60;38.40;;;;;;5976288;29;20153;-78
2023/10/02 15:43:47;;;;;;;6.40;3.78;;;29.60;38.50;;;;;;5986334;29;20049;-80
2023/10/02 15:46:50;;;;;;;6.97;3.67;;;29.50;38.50;;;;;;5965332;29;20042;-77
2023/10/02 15:49:52;;;;;;;7.32;3.72;;;29.60;38.70;;;;;;5982124;29;20090;-77
2023/10/02 15:52:53;;;;;;;16.40;4.03;;;29.60;38.70;;;;;;5965850;29;20096;-77
2023/10/02 15:55:56;;;;;;;6.63;3.60;;;29.60;38.90;;;;;;5965737;29;20042;-80
2023/10/02 15:58:57;;;;;;;14.77;3.63;;;29.50;38.90;;;;;;5966297;29;20361;-77
2023/10/02 16:01:58;;;;;;;6.75;3.63;;;29.50;38.90;;;;;;5968069;29;20077;-78
2023/10/02 16:04:59;;;;;;;8.82;4.25;;;29.50;39.00;;;;;;5981352;29;20045;-75
2023/10/02 16:08:01;;;;;;;8.90;4.63;;;29.40;39.10;;;;;;5990070;29;20050;-76
2023/10/02 16:11:02;;;;;;;8.13;3.40;;;29.30;39.10;;;;;;5982426;29;20520;-77
2023/10/02 16:14:03;;;;;;;11.85;4.05;;;29.30;39.30;;;;;;5981580;29;20038;-77
2023/10/02 16:17:07;;;;;;;7.65;3.80;;;29.20;39.40;;;;;;5965728;29;20089;-77
2023/10/02 16:20:14;;;;;;;7.38;3.88;;;29.20;39.60;;;;;;5964554;29;20148;-78
2023/10/02 16:23:17;;;;;;;8.70;4.20;;;29.10;39.60;;;;;;5964684;29;20046;-77
2023/10/02 16:26:20;;;;;;;7.90;4.10;;;29.20;39.90;;;;;;5979602;29;20133;-77
2023/10/02 16:29:20;;;;;;;23.73;4.20;;;29.00;40.00;;;;;;5948929;29;20034;-79
2023/10/02 16:32:21;;;;;;;13.05;4.57;;;29.00;40.20;;;;;;5979533;29;20416;-76
2023/10/02 16:35:29;;;;;;;6.78;3.28;;;28.90;40.30;;;;;;5963869;29;20175;-76